Time;durP1;ratioP1;P1;durP2;ratioP2;P2;SDS_P1;SDS_P2;PMS_P1;PMS_P2;Temp;Humidity;BMP_temperature;BMP_pressure;BME280_temperature;BME280_humidity;BME280_pressure;Samples;Min_cycle;Max_cycle;Signal;HPM_P1;HPM_P2
2024/04/18 00:00:13;;;;;;;;;;;;;;;;;;1100362;26;19937;-72
2024/04/18 00:00:44;;;;;;;;;;;;;;;;;;1101024;26;20025;-72
2024/04/18 00:01:14;;;;;;;;;;;;;;;;;;1101752;26;19930;-72
2024/04/18 00:01:44;;;;;;;;;;;;;;;;;;1101598;26;19941;-72
2024/04/18 00:02:15;;;;;;;;;;;;;;;;;;1111293;26;19929;-72
2024/04/18 00:02:45;;;;;;;;;;;;;;;;;;1119651;26;20408;-72
2024/04/18 00:03:15;;;;;;;;;;;;;;;;;;1111978;26;20007;-72
2024/04/18 00:03:45;;;;;;;;;;;;;;;;;;1112475;26;19930;-72
2024/04/18 00:04:15;;;;;;;;;;;;;;;;;;1112468;26;20035;-72
2024/04/18 00:04:46;;;;;;;;;;;;;;;;;;1112500;26;19930;-72
2024/04/18 00:05:18;;;;;;;;;;;;;;;;;;1105102;26;19936;-72
2024/04/18 00:05:48;;;;;;;;;;;;;;;;;;1101042;26;20402;-72
2024/04/18 00:06:19;;;;;;;;;;;;;;;;;;1102256;26;19942;-72
2024/04/18 00:06:49;;;;;;;;;;;;;;;;;;1095886;26;19931;-72
2024/04/18 00:07:19;;;;;;;;;;;;;;;;;;1093761;27;19930;-72
2024/04/18 00:07:49;;;;;;;;;;;;;;;;;;1100562;26;19931;-72
2024/04/18 00:08:20;;;;;;;;;;;;;;;;;;1101275;26;20001;-72
2024/04/18 00:08:50;;;;;;;;;;;;;;;;;;1101666;26;19930;-72
2024/04/18 00:09:20;;;;;;;;;;;;;;;;;;1108658;26;19936;-72
2024/04/18 00:09:50;;;;;;;;;;;;;;;;;;1100998;26;19934;-72
2024/04/18 00:10:21;;;;;;;;;;;;;;;;;;1107839;26;20010;-72
2024/04/18 00:10:54;;;;;;;;;;;;;;;;;;1108254;26;19934;-72
2024/04/18 00:11:24;;;;;;;;;;;;;;;;;;1111372;26;19936;-72
2024/04/18 00:11:54;;;;;;;;;;;;;;;;;;1107858;26;19933;-72
2024/04/18 00:12:25;;;;;;;;;;;;;;;;;;1100708;26;19930;-72
2024/04/18 00:12:55;;;;;;;;;;;;;;;;;;1101479;26;19931;-72
2024/04/18 00:13:25;;;;;;;;;;;;;;;;;;1101370;26;19934;-72
2024/04/18 00:13:55;;;;;;;;;;;;;;;;;;1111258;26;19977;-72
2024/04/18 00:14:26;;;;;;;;;;;;;;;;;;1104812;26;19970;-72
2024/04/18 00:14:56;;;;;;;;;;;;;;;;;;1104901;26;19973;-72
2024/04/18 00:15:26;;;;;;;;;;;;;;;;;;1112258;26;19936;-72
2024/04/18 00:15:57;;;;;;;;;;;;;;;;;;1104766;26;19930;-72
2024/04/18 00:16:27;;;;;;;;;;;;;;;;;;1108774;26;19983;-72
2024/04/18 00:16:57;;;;;;;;;;;;;;;;;;1108758;26;20281;-72
2024/04/18 00:17:27;;;;;;;;;;;;;;;;;;1108494;26;20262;-72
2024/04/18 00:17:58;;;;;;;;;;;;;;;;;;1110107;26;19942;-72
2024/04/18 00:18:28;;;;;;;;;;;;;;;;;;1110543;26;20462;-72
2024/04/18 00:18:58;;;;;;;;;;;;;;;;;;1112090;26;19948;-72
2024/04/18 00:19:28;;;;;;;;;;;;;;;;;;1105031;26;19966;-72
2024/04/18 00:19:59;;;;;;;;;;;;;;;;;;1110268;26;20046;-72
2024/04/18 00:20:29;;;;;;;;;;;;;;;;;;1111357;26;19933;-72
2024/04/18 00:20:59;;;;;;;;;;;;;;;;;;1099569;26;20275;-72
2024/04/18 00:21:29;;;;;;;;;;;;;;;;;;1112350;26;20350;-71
2024/04/18 00:22:02;;;;;;;;;;;;;;;;;;1104866;26;19962;-71
2024/04/18 00:22:33;;;;;;;;;;;;;;;;;;1101914;26;19937;-72
2024/04/18 00:23:03;;;;;;;;;;;;;;;;;;1099661;26;19938;-72
2024/04/18 00:23:33;;;;;;;;;;;;;;;;;;1105332;26;20312;-72
2024/04/18 00:24:03;;;;;;;;;;;;;;;;;;1104524;26;19966;-72
2024/04/18 00:24:34;;;;;;;;;;;;;;;;;;1112160;26;19969;-72
2024/04/18 00:25:06;;;;;;;;;;;;;;;;;;1104747;26;19930;-72
2024/04/18 00:25:36;;;;;;;;;;;;;;;;;;1097996;26;19931;-72
2024/04/18 00:26:06;;;;;;;;;;;;;;;;;;1099604;26;20422;-72
2024/04/18 00:26:37;;;;;;;;;;;;;;;;;;1094971;27;20050;-72
2024/04/18 00:27:07;;;;;;;;;;;;;;;;;;1095139;26;19962;-72
2024/04/18 00:27:37;;;;;;;;;;;;;;;;;;1096433;27;19931;-72
2024/04/18 00:28:08;;;;;;;;;;;;;;;;;;1098050;26;19963;-71
2024/04/18 00:28:38;;;;;;;;;;;;;;;;;;1105387;26;19941;-71
2024/04/18 00:29:08;;;;;;;;;;;;;;;;;;1112671;26;19980;-72
2024/04/18 00:29:38;;;;;;;;;;;;;;;;;;1112796;26;19950;-72
2024/04/18 00:30:09;;;;;;;;;;;;;;;;;;1112226;26;19961;-72
2024/04/18 00:30:39;;;;;;;;;;;;;;;;;;1105938;26;19969;-72
2024/04/18 00:31:10;;;;;;;;;;;;;;;;;;1104992;26;19937;-72
2024/04/18 00:31:40;;;;;;;;;;;;;;;;;;1105370;26;19936;-72
2024/04/18 00:32:10;;;;;;;;;;;;;;;;;;1104618;26;20374;-72
2024/04/18 00:32:41;;;;;;;;;;;;;;;;;;1105549;26;19937;-72
2024/04/18 00:33:11;;;;;;;;;;;;;;;;;;1102943;26;20016;-72
2024/04/18 00:33:42;;;;;;;;;;;;;;;;;;1105079;26;19937;-72
2024/04/18 00:34:12;;;;;;;;;;;;;;;;;;1113030;26;20303;-73
2024/04/18 00:34:42;;;;;;;;;;;;;;;;;;1113124;26;19929;-72
2024/04/18 00:35:12;;;;;;;;;;;;;;;;;;1104450;26;20377;-72
2024/04/18 00:35:42;;;;;;;;;;;;;;;;;;1102676;26;19941;-72
2024/04/18 00:36:13;;;;;;;;;;;;;;;;;;1100753;26;20450;-71
2024/04/18 00:36:44;;;;;;;;;;;;;;;;;;1103236;26;19930;-72
2024/04/18 00:37:14;;;;;;;;;;;;;;;;;;1095192;27;19938;-72
2024/04/18 00:37:44;;;;;;;;;;;;;;;;;;1094878;27;19935;-72
2024/04/18 00:38:15;;;;;;;;;;;;;;;;;;1095486;27;19942;-72
2024/04/18 00:38:45;;;;;;;;;;;;;;;;;;1094535;26;20418;-72
2024/04/18 00:39:15;;;;;;;;;;;;;;;;;;1092781;27;19931;-72
2024/04/18 00:39:47;;;;;;;;;;;;;;;;;;1100977;26;19930;-72
2024/04/18 00:40:17;;;;;;;;;;;;;;;;;;1101915;26;19930;-72
2024/04/18 00:40:48;;;;;;;;;;;;;;;;;;1098358;26;19931;-72
2024/04/18 00:41:18;;;;;;;;;;;;;;;;;;1105142;26;19945;-72
2024/04/18 00:41:48;;;;;;;;;;;;;;;;;;1112522;26;19938;-72
2024/04/18 00:42:19;;;;;;;;;;;;;;;;;;1112581;26;20026;-72
2024/04/18 00:42:49;;;;;;;;;;;;;;;;;;1104978;26;20353;-72
2024/04/18 00:43:19;;;;;;;;;;;;;;;;;;1104814;26;19937;-72
2024/04/18 00:43:50;;;;;;;;;;;;;;;;;;1105210;26;19930;-72
2024/04/18 00:44:21;;;;;;;;;;;;;;;;;;1105078;26;19942;-72
2024/04/18 00:44:51;;;;;;;;;;;;;;;;;;1110429;26;19929;-72
2024/04/18 00:45:21;;;;;;;;;;;;;;;;;;1104785;26;19937;-72
2024/04/18 00:45:52;;;;;;;;;;;;;;;;;;1112220;26;19969;-72
2024/04/18 00:46:26;;;;;;;;;;;;;;;;;;1104621;26;19962;-72
2024/04/18 00:46:56;;;;;;;;;;;;;;;;;;1104047;26;20366;-72
2024/04/18 00:47:26;;;;;;;;;;;;;;;;;;1104611;26;19934;-72
2024/04/18 00:47:57;;;;;;;;;;;;;;;;;;1105035;26;19937;-72
2024/04/18 00:48:29;;;;;;;;;;;;;;;;;;1105221;26;19936;-72
2024/04/18 00:48:59;;;;;;;;;;;;;;;;;;1105072;26;19937;-72
2024/04/18 00:49:29;;;;;;;;;;;;;;;;;;1112281;26;20368;-72
2024/04/18 00:49:59;;;;;;;;;;;;;;;;;;1112221;26;19961;-72
2024/04/18 00:50:30;;;;;;;;;;;;;;;;;;1112548;26;19962;-72
2024/04/18 00:51:00;;;;;;;;;;;;;;;;;;1112214;26;20381;-72
2024/04/18 00:51:30;;;;;;;;;;;;;;;;;;1112259;26;20320;-72
2024/04/18 00:52:00;;;;;;;;;;;;;;;;;;1104695;26;19938;-72
2024/04/18 00:52:31;;;;;;;;;;;;;;;;;;1105092;26;19938;-72
2024/04/18 00:53:01;;;;;;;;;;;;;;;;;;1104721;26;20374;-72
2024/04/18 00:53:31;;;;;;;;;;;;;;;;;;1112157;26;19930;-72
2024/04/18 00:54:01;;;;;;;;;;;;;;;;;;1111707;26;19933;-72
2024/04/18 00:54:32;;;;;;;;;;;;;;;;;;1111762;26;20388;-72
2024/04/18 00:55:03;;;;;;;;;;;;;;;;;;1103760;26;19966;-72
2024/04/18 00:55:33;;;;;;;;;;;;;;;;;;1105056;26;20360;-72
2024/04/18 00:56:03;;;;;;;;;;;;;;;;;;1104754;26;19950;-72
2024/04/18 00:56:33;;;;;;;;;;;;;;;;;;1105175;26;19940;-72
2024/04/18 00:57:04;;;;;;;;;;;;;;;;;;1104641;26;19941;-72
2024/04/18 00:57:34;;;;;;;;;;;;;;;;;;1104825;26;19940;-72
2024/04/18 00:58:04;;;;;;;;;;;;;;;;;;1111911;26;19929;-72
2024/04/18 00:58:34;;;;;;;;;;;;;;;;;;1112063;26;19930;-72
2024/04/18 00:59:05;;;;;;;;;;;;;;;;;;1112620;26;19929;-72
2024/04/18 00:59:35;;;;;;;;;;;;;;;;;;1108424;26;20377;-72
2024/04/18 01:00:05;;;;;;;;;;;;;;;;;;1108733;26;19930;-72
2024/04/18 01:00:35;;;;;;;;;;;;;;;;;;1101512;26;20382;-72
2024/04/18 01:01:05;;;;;;;;;;;;;;;;;;1101917;26;19934;-72
2024/04/18 01:01:36;;;;;;;;;;;;;;;;;;1112478;26;19938;-72
2024/04/18 01:02:06;;;;;;;;;;;;;;;;;;1112643;26;20027;-72
2024/04/18 01:02:36;;;;;;;;;;;;;;;;;;1113150;26;19958;-72
2024/04/18 01:03:06;;;;;;;;;;;;;;;;;;1112696;26;19937;-72
2024/04/18 01:03:37;;;;;;;;;;;;;;;;;;1112590;26;20039;-72
2024/04/18 01:04:07;;;;;;;;;;;;;;;;;;1104870;26;19941;-72
2024/04/18 01:04:37;;;;;;;;;;;;;;;;;;1105235;26;20310;-72
2024/04/18 01:05:07;;;;;;;;;;;;;;;;;;1105294;26;19930;-72
2024/04/18 01:05:38;;;;;;;;;;;;;;;;;;1112403;26;19976;-72
2024/04/18 01:06:08;;;;;;;;;;;;;;;;;;1105138;26;20385;-72
2024/04/18 01:06:39;;;;;;;;;;;;;;;;;;1105175;26;19937;-72
2024/04/18 01:07:09;;;;;;;;;;;;;;;;;;1104352;26;20345;-72
2024/04/18 01:07:40;;;;;;;;;;;;;;;;;;1105522;26;19929;-72
2024/04/18 01:08:10;;;;;;;;;;;;;;;;;;1105055;26;19930;-72
2024/04/18 01:08:41;;;;;;;;;;;;;;;;;;1104996;26;20417;-72
2024/04/18 01:09:11;;;;;;;;;;;;;;;;;;1110281;26;19940;-72
2024/04/18 01:09:41;;;;;;;;;;;;;;;;;;1110882;26;20429;-72
2024/04/18 01:10:11;;;;;;;;;;;;;;;;;;1112312;26;19937;-72
2024/04/18 01:10:42;;;;;;;;;;;;;;;;;;1112075;26;19930;-72
2024/04/18 01:11:12;;;;;;;;;;;;;;;;;;1105235;26;20262;-72
2024/04/18 01:11:42;;;;;;;;;;;;;;;;;;1105372;26;19934;-72
2024/04/18 01:12:13;;;;;;;;;;;;;;;;;;1105333;26;19934;-72
2024/04/18 01:12:43;;;;;;;;;;;;;;;;;;1105380;26;20387;-72
2024/04/18 01:13:13;;;;;;;;;;;;;;;;;;1104793;26;19999;-72
2024/04/18 01:13:44;;;;;;;;;;;;;;;;;;1098384;27;19934;-72
2024/04/18 01:14:14;;;;;;;;;;;;;;;;;;1097967;26;19942;-72
2024/04/18 01:14:45;;;;;;;;;;;;;;;;;;1098197;26;19930;-72
2024/04/18 01:15:15;;;;;;;;;;;;;;;;;;1098102;27;19931;-72
2024/04/18 01:15:46;;;;;;;;;;;;;;;;;;1096638;27;19930;-72
2024/04/18 01:16:16;;;;;;;;;;;;;;;;;;1097655;27;19930;-72
2024/04/18 01:16:46;;;;;;;;;;;;;;;;;;1102400;26;20041;-72
2024/04/18 01:17:17;;;;;;;;;;;;;;;;;;1108664;26;20291;-72
2024/04/18 01:17:47;;;;;;;;;;;;;;;;;;1102549;26;20427;-72
2024/04/18 01:18:17;;;;;;;;;;;;;;;;;;1093927;27;19959;-72
2024/04/18 01:18:47;;;;;;;;;;;;;;;;;;1096289;27;20358;-72
2024/04/18 01:19:18;;;;;;;;;;;;;;;;;;1097319;27;19935;-72
2024/04/18 01:19:48;;;;;;;;;;;;;;;;;;1090068;27;20005;-72
2024/04/18 01:20:18;;;;;;;;;;;;;;;;;;1097106;27;20274;-72
2024/04/18 01:20:48;;;;;;;;;;;;;;;;;;1104203;26;20033;-72
2024/04/18 01:21:19;;;;;;;;;;;;;;;;;;1107330;26;19937;-72
2024/04/18 01:21:49;;;;;;;;;;;;;;;;;;1107955;26;19945;-72
2024/04/18 01:22:19;;;;;;;;;;;;;;;;;;1106140;26;19941;-72
2024/04/18 01:22:49;;;;;;;;;;;;;;;;;;1108536;26;19931;-73
2024/04/18 01:23:20;;;;;;;;;;;;;;;;;;1107816;26;19937;-72
2024/04/18 01:23:50;;;;;;;;;;;;;;;;;;1110358;26;19938;-72
2024/04/18 01:24:21;;;;;;;;;;;;;;;;;;1110816;26;19974;-72
2024/04/18 01:24:51;;;;;;;;;;;;;;;;;;1110511;26;19933;-71
2024/04/18 01:25:21;;;;;;;;;;;;;;;;;;1112100;26;19936;-71
2024/04/18 01:25:51;;;;;;;;;;;;;;;;;;1110436;26;19937;-72
2024/04/18 01:26:22;;;;;;;;;;;;;;;;;;1111886;26;19929;-73
2024/04/18 01:26:52;;;;;;;;;;;;;;;;;;1106854;26;19932;-72
2024/04/18 01:27:22;;;;;;;;;;;;;;;;;;1106443;26;19937;-72
2024/04/18 01:27:52;;;;;;;;;;;;;;;;;;1109460;26;19929;-72
2024/04/18 01:28:23;;;;;;;;;;;;;;;;;;1101304;26;19937;-72
2024/04/18 01:28:53;;;;;;;;;;;;;;;;;;1110456;26;19930;-72
2024/04/18 01:29:23;;;;;;;;;;;;;;;;;;1110719;26;20347;-72
2024/04/18 01:29:54;;;;;;;;;;;;;;;;;;1100726;26;20379;-72
2024/04/18 01:30:24;;;;;;;;;;;;;;;;;;1099682;26;19934;-72
2024/04/18 01:30:54;;;;;;;;;;;;;;;;;;1100640;26;20349;-72
2024/04/18 01:31:24;;;;;;;;;;;;;;;;;;1102568;26;20353;-72
2024/04/18 01:31:55;;;;;;;;;;;;;;;;;;1104353;26;19941;-72
2024/04/18 01:32:26;;;;;;;;;;;;;;;;;;1104214;26;20351;-72
2024/04/18 01:32:56;;;;;;;;;;;;;;;;;;1107654;26;20476;-72
2024/04/18 01:33:26;;;;;;;;;;;;;;;;;;1113543;26;20426;-72
2024/04/18 01:33:57;;;;;;;;;;;;;;;;;;1111758;26;19930;-72
2024/04/18 01:34:27;;;;;;;;;;;;;;;;;;1110657;26;20381;-72
2024/04/18 01:34:57;;;;;;;;;;;;;;;;;;1111544;26;19937;-72
2024/04/18 01:35:28;;;;;;;;;;;;;;;;;;1111458;26;19945;-72
2024/04/18 01:35:58;;;;;;;;;;;;;;;;;;1110179;26;19930;-72
2024/04/18 01:36:29;;;;;;;;;;;;;;;;;;1112178;26;20429;-72
2024/04/18 01:36:59;;;;;;;;;;;;;;;;;;1111557;26;20289;-72
2024/04/18 01:37:29;;;;;;;;;;;;;;;;;;1112913;26;20409;-72
2024/04/18 01:37:59;;;;;;;;;;;;;;;;;;1110917;26;19958;-72
2024/04/18 01:38:30;;;;;;;;;;;;;;;;;;1104893;26;19957;-72
2024/04/18 01:39:00;;;;;;;;;;;;;;;;;;1110282;26;19940;-72
2024/04/18 01:39:30;;;;;;;;;;;;;;;;;;1103947;26;19958;-72
2024/04/18 01:40:01;;;;;;;;;;;;;;;;;;1099715;26;19930;-72
2024/04/18 01:40:31;;;;;;;;;;;;;;;;;;1100966;26;20297;-72
2024/04/18 01:41:02;;;;;;;;;;;;;;;;;;1101069;26;20021;-72
2024/04/18 01:41:32;;;;;;;;;;;;;;;;;;1104414;26;19930;-72
2024/04/18 01:42:02;;;;;;;;;;;;;;;;;;1096549;27;19995;-72
2024/04/18 01:42:33;;;;;;;;;;;;;;;;;;1097193;27;20026;-72
2024/04/18 01:43:03;;;;;;;;;;;;;;;;;;1103310;26;19934;-72
2024/04/18 01:43:33;;;;;;;;;;;;;;;;;;1103462;26;20324;-72
2024/04/18 01:44:04;;;;;;;;;;;;;;;;;;1104189;26;20409;-72
2024/04/18 01:44:34;;;;;;;;;;;;;;;;;;1097372;26;20003;-72
2024/04/18 01:45:05;;;;;;;;;;;;;;;;;;1096806;26;19937;-72
2024/04/18 01:45:36;;;;;;;;;;;;;;;;;;1105509;26;20378;-72
2024/04/18 01:46:06;;;;;;;;;;;;;;;;;;1111529;26;19929;-72
2024/04/18 01:46:36;;;;;;;;;;;;;;;;;;1104441;26;19930;-72
2024/04/18 01:47:07;;;;;;;;;;;;;;;;;;1104890;26;19970;-72
2024/04/18 01:47:37;;;;;;;;;;;;;;;;;;1099745;26;19934;-72
2024/04/18 01:48:07;;;;;;;;;;;;;;;;;;1095952;27;19937;-72
2024/04/18 01:48:37;;;;;;;;;;;;;;;;;;1100665;26;19938;-72
2024/04/18 01:49:08;;;;;;;;;;;;;;;;;;1098363;26;19946;-72
2024/04/18 01:49:38;;;;;;;;;;;;;;;;;;1104264;26;19930;-72
2024/04/18 01:50:09;;;;;;;;;;;;;;;;;;1101555;26;20445;-72
2024/04/18 01:50:39;;;;;;;;;;;;;;;;;;1099066;26;19950;-72
2024/04/18 01:51:09;;;;;;;;;;;;;;;;;;1109288;26;20332;-72
2024/04/18 01:51:40;;;;;;;;;;;;;;;;;;1101474;26;20000;-72
2024/04/18 01:52:10;;;;;;;;;;;;;;;;;;1094364;27;19950;-72
2024/04/18 01:52:40;;;;;;;;;;;;;;;;;;1094266;27;19931;-72
2024/04/18 01:53:10;;;;;;;;;;;;;;;;;;1098298;26;19945;-72
2024/04/18 01:53:41;;;;;;;;;;;;;;;;;;1109430;26;19937;-72
2024/04/18 01:54:11;;;;;;;;;;;;;;;;;;1111232;26;19937;-72
2024/04/18 01:54:41;;;;;;;;;;;;;;;;;;1106002;26;19953;-72
2024/04/18 01:55:11;;;;;;;;;;;;;;;;;;1099777;26;19986;-72
2024/04/18 01:55:42;;;;;;;;;;;;;;;;;;1098649;26;19950;-72
2024/04/18 01:56:12;;;;;;;;;;;;;;;;;;1105001;26;19938;-72
2024/04/18 01:56:42;;;;;;;;;;;;;;;;;;1108643;26;19944;-72
2024/04/18 01:57:13;;;;;;;;;;;;;;;;;;1107463;26;19937;-72
2024/04/18 01:57:43;;;;;;;;;;;;;;;;;;1107897;26;19959;-72
2024/04/18 01:58:13;;;;;;;;;;;;;;;;;;1102486;26;19971;-72
2024/04/18 01:58:44;;;;;;;;;;;;;;;;;;1103986;26;19937;-72
2024/04/18 01:59:14;;;;;;;;;;;;;;;;;;1111218;26;20371;-72
2024/04/18 01:59:44;;;;;;;;;;;;;;;;;;1109929;26;20335;-72
2024/04/18 02:00:15;;;;;;;;;;;;;;;;;;1111129;26;19934;-72
2024/04/18 02:00:45;;;;;;;;;;;;;;;;;;1110960;26;20397;-72
2024/04/18 02:01:15;;;;;;;;;;;;;;;;;;1111022;26;20404;-73
2024/04/18 02:01:45;;;;;;;;;;;;;;;;;;1109314;26;19941;-72
2024/04/18 02:02:16;;;;;;;;;;;;;;;;;;1108659;26;20023;-72
2024/04/18 02:02:46;;;;;;;;;;;;;;;;;;1101824;26;19934;-72
2024/04/18 02:03:16;;;;;;;;;;;;;;;;;;1098292;26;19930;-72
2024/04/18 02:03:47;;;;;;;;;;;;;;;;;;1092286;27;19950;-72
2024/04/18 02:04:20;;;;;;;;;;;;;;;;;;1098354;26;19934;-72
2024/04/18 02:04:50;;;;;;;;;;;;;;;;;;1100801;26;19942;-72
2024/04/18 02:05:20;;;;;;;;;;;;;;;;;;1096471;26;19942;-72
2024/04/18 02:05:51;;;;;;;;;;;;;;;;;;1101687;26;19935;-72
2024/04/18 02:06:21;;;;;;;;;;;;;;;;;;1096387;27;19938;-72
2024/04/18 02:06:52;;;;;;;;;;;;;;;;;;1101412;26;19930;-72
2024/04/18 02:07:22;;;;;;;;;;;;;;;;;;1108407;26;19937;-72
2024/04/18 02:07:52;;;;;;;;;;;;;;;;;;1102007;26;20390;-72
2024/04/18 02:08:22;;;;;;;;;;;;;;;;;;1097907;26;20381;-72
2024/04/18 02:08:53;;;;;;;;;;;;;;;;;;1107269;26;20357;-73
2024/04/18 02:09:23;;;;;;;;;;;;;;;;;;1102621;26;20040;-73
2024/04/18 02:09:53;;;;;;;;;;;;;;;;;;1102204;26;19936;-72
2024/04/18 02:10:27;;;;;;;;;;;;;;;;;;1104692;26;20004;-72
2024/04/18 02:10:57;;;;;;;;;;;;;;;;;;1108593;26;20000;-73
2024/04/18 02:11:27;;;;;;;;;;;;;;;;;;1105013;26;20313;-72
2024/04/18 02:11:57;;;;;;;;;;;;;;;;;;1101711;26;20361;-72
2024/04/18 02:12:28;;;;;;;;;;;;;;;;;;1094151;27;19931;-72
2024/04/18 02:12:58;;;;;;;;;;;;;;;;;;1088743;27;19932;-72
2024/04/18 02:13:28;;;;;;;;;;;;;;;;;;1097579;26;19938;-72
2024/04/18 02:13:59;;;;;;;;;;;;;;;;;;1105362;26;20564;-72
2024/04/18 02:14:29;;;;;;;;;;;;;;;;;;1103072;26;19930;-73
2024/04/18 02:14:59;;;;;;;;;;;;;;;;;;1102998;26;19942;-72
2024/04/18 02:15:29;;;;;;;;;;;;;;;;;;1103275;26;20388;-72
2024/04/18 02:16:00;;;;;;;;;;;;;;;;;;1098561;26;19989;-72
2024/04/18 02:16:30;;;;;;;;;;;;;;;;;;1102570;26;20009;-73
2024/04/18 02:17:00;;;;;;;;;;;;;;;;;;1102349;26;19958;-72
2024/04/18 02:17:31;;;;;;;;;;;;;;;;;;1110099;26;19942;-72
2024/04/18 02:18:01;;;;;;;;;;;;;;;;;;1110371;26;19934;-72
2024/04/18 02:18:31;;;;;;;;;;;;;;;;;;1102260;26;19965;-72
2024/04/18 02:19:02;;;;;;;;;;;;;;;;;;1095728;26;20572;-71
2024/04/18 02:19:32;;;;;;;;;;;;;;;;;;1095256;27;19938;-71
2024/04/18 02:20:03;;;;;;;;;;;;;;;;;;1103151;26;19941;-71
2024/04/18 02:20:34;;;;;;;;;;;;;;;;;;1101359;26;19930;-71
2024/04/18 02:21:04;;;;;;;;;;;;;;;;;;1103779;26;19999;-71
2024/04/18 02:21:34;;;;;;;;;;;;;;;;;;1103942;26;19937;-72
2024/04/18 02:22:05;;;;;;;;;;;;;;;;;;1097272;26;20204;-72
2024/04/18 02:22:35;;;;;;;;;;;;;;;;;;1104207;26;20390;-72
2024/04/18 02:23:06;;;;;;;;;;;;;;;;;;1105463;26;19999;-71
2024/04/18 02:23:36;;;;;;;;;;;;;;;;;;1098494;26;19987;-72
2024/04/18 02:24:06;;;;;;;;;;;;;;;;;;1103566;26;19930;-71
2024/04/18 02:24:37;;;;;;;;;;;;;;;;;;1104444;26;19934;-71
2024/04/18 02:25:08;;;;;;;;;;;;;;;;;;1112213;26;19936;-71
2024/04/18 02:25:38;;;;;;;;;;;;;;;;;;1109836;26;19948;-72
2024/04/18 02:26:09;;;;;;;;;;;;;;;;;;1108504;26;19929;-72
2024/04/18 02:26:39;;;;;;;;;;;;;;;;;;1099882;26;19949;-71
2024/04/18 02:27:10;;;;;;;;;;;;;;;;;;1097264;26;20280;-71
2024/04/18 02:27:43;;;;;;;;;;;;;;;;;;1103612;26;19948;-71
2024/04/18 02:28:13;;;;;;;;;;;;;;;;;;1096759;26;19930;-71
2024/04/18 02:28:44;;;;;;;;;;;;;;;;;;1102494;26;19945;-71
2024/04/18 02:29:14;;;;;;;;;;;;;;;;;;1101683;26;19977;-72
2024/04/18 02:29:44;;;;;;;;;;;;;;;;;;1104795;26;20003;-72
2024/04/18 02:30:14;;;;;;;;;;;;;;;;;;1104472;26;19938;-72
2024/04/18 02:30:44;;;;;;;;;;;;;;;;;;1103539;26;19941;-72
2024/04/18 02:31:15;;;;;;;;;;;;;;;;;;1110707;26;19930;-72
2024/04/18 02:31:45;;;;;;;;;;;;;;;;;;1111859;26;19957;-72
2024/04/18 02:32:15;;;;;;;;;;;;;;;;;;1112836;26;20318;-72
2024/04/18 02:32:46;;;;;;;;;;;;;;;;;;1112149;26;19937;-74
2024/04/18 02:33:16;;;;;;;;;;;;;;;;;;1111336;26;19970;-73
2024/04/18 02:33:46;;;;;;;;;;;;;;;;;;1111254;26;19962;-72
2024/04/18 02:34:17;;;;;;;;;;;;;;;;;;1111379;26;20024;-72
2024/04/18 02:34:47;;;;;;;;;;;;;;;;;;1102311;26;19965;-72
2024/04/18 02:35:17;;;;;;;;;;;;;;;;;;1102178;26;19930;-72
2024/04/18 02:35:48;;;;;;;;;;;;;;;;;;1102695;26;19942;-72
2024/04/18 02:36:18;;;;;;;;;;;;;;;;;;1109810;26;20381;-71
2024/04/18 02:36:48;;;;;;;;;;;;;;;;;;1116209;26;20383;-72
2024/04/18 02:37:18;;;;;;;;;;;;;;;;;;1109502;26;19962;-72
2024/04/18 02:37:49;;;;;;;;;;;;;;;;;;1102153;26;19935;-73
2024/04/18 02:38:19;;;;;;;;;;;;;;;;;;1103410;26;19937;-72
2024/04/18 02:38:49;;;;;;;;;;;;;;;;;;1101323;26;19938;-72
2024/04/18 02:39:19;;;;;;;;;;;;;;;;;;1108960;26;19930;-72
2024/04/18 02:39:50;;;;;;;;;;;;;;;;;;1110131;26;19936;-72
2024/04/18 02:40:20;;;;;;;;;;;;;;;;;;1110838;26;19930;-72
2024/04/18 02:40:50;;;;;;;;;;;;;;;;;;1110108;26;20401;-72
2024/04/18 02:41:21;;;;;;;;;;;;;;;;;;1109647;26;20058;-71
2024/04/18 02:41:52;;;;;;;;;;;;;;;;;;1102930;26;20017;-72
2024/04/18 02:42:22;;;;;;;;;;;;;;;;;;1104693;26;19941;-72
2024/04/18 02:42:53;;;;;;;;;;;;;;;;;;1097773;26;20505;-72
2024/04/18 02:43:23;;;;;;;;;;;;;;;;;;1101887;26;19930;-72
2024/04/18 02:43:53;;;;;;;;;;;;;;;;;;1105873;26;19958;-72
2024/04/18 02:44:24;;;;;;;;;;;;;;;;;;1109681;26;20495;-72
2024/04/18 02:44:54;;;;;;;;;;;;;;;;;;1104689;26;20388;-72
2024/04/18 02:45:24;;;;;;;;;;;;;;;;;;1108466;26;19933;-72
2024/04/18 02:45:54;;;;;;;;;;;;;;;;;;1107178;26;19937;-72
2024/04/18 02:46:25;;;;;;;;;;;;;;;;;;1102058;26;20619;-72
2024/04/18 02:46:55;;;;;;;;;;;;;;;;;;1108920;26;20434;-72
2024/04/18 02:47:25;;;;;;;;;;;;;;;;;;1106907;26;20410;-72
2024/04/18 02:47:56;;;;;;;;;;;;;;;;;;1109738;26;19930;-72
2024/04/18 02:48:26;;;;;;;;;;;;;;;;;;1110158;26;19941;-72
2024/04/18 02:48:56;;;;;;;;;;;;;;;;;;1111016;26;20052;-72
2024/04/18 02:49:26;;;;;;;;;;;;;;;;;;1107971;26;20657;-73
2024/04/18 02:49:57;;;;;;;;;;;;;;;;;;1109861;26;19992;-72
2024/04/18 02:50:28;;;;;;;;;;;;;;;;;;1103636;26;19934;-72
2024/04/18 02:50:58;;;;;;;;;;;;;;;;;;1100864;26;19964;-73
2024/04/18 02:51:29;;;;;;;;;;;;;;;;;;1101134;26;19937;-73
2024/04/18 02:51:59;;;;;;;;;;;;;;;;;;1102477;26;20340;-72
2024/04/18 02:52:29;;;;;;;;;;;;;;;;;;1109126;26;21415;-73
2024/04/18 02:52:59;;;;;;;;;;;;;;;;;;1102821;26;19989;-72
2024/04/18 02:53:30;;;;;;;;;;;;;;;;;;1102372;26;19934;-72
2024/04/18 02:54:03;;;;;;;;;;;;;;;;;;1108473;26;19941;-71
2024/04/18 02:54:33;;;;;;;;;;;;;;;;;;1108575;26;20430;-71
2024/04/18 02:55:03;;;;;;;;;;;;;;;;;;1110443;26;19941;-72
2024/04/18 02:55:34;;;;;;;;;;;;;;;;;;1109055;26;19971;-71
2024/04/18 02:56:04;;;;;;;;;;;;;;;;;;1107349;26;19937;-71
2024/04/18 02:56:34;;;;;;;;;;;;;;;;;;1104376;26;20048;-71
2024/04/18 02:57:05;;;;;;;;;;;;;;;;;;1104669;26;19936;-72
2024/04/18 02:57:36;;;;;;;;;;;;;;;;;;1109466;26;19940;-72
2024/04/18 02:58:06;;;;;;;;;;;;;;;;;;1109922;26;19930;-72
2024/04/18 02:58:37;;;;;;;;;;;;;;;;;;1103287;26;19937;-72
2024/04/18 02:59:07;;;;;;;;;;;;;;;;;;1099920;26;19934;-72
2024/04/18 02:59:37;;;;;;;;;;;;;;;;;;1099381;26;19938;-72
2024/04/18 03:00:08;;;;;;;;;;;;;;;;;;1109024;26;19937;-72
2024/04/18 03:00:38;;;;;;;;;;;;;;;;;;1107481;26;19929;-72
2024/04/18 03:01:09;;;;;;;;;;;;;;;;;;1101819;26;19930;-72
2024/04/18 03:01:39;;;;;;;;;;;;;;;;;;1102493;26;19934;-72
2024/04/18 03:02:09;;;;;;;;;;;;;;;;;;1107506;26;20308;-73
2024/04/18 03:02:40;;;;;;;;;;;;;;;;;;1109698;26;20365;-72
2024/04/18 03:03:10;;;;;;;;;;;;;;;;;;1110205;26;20027;-72
2024/04/18 03:03:40;;;;;;;;;;;;;;;;;;1109933;26;20300;-72
2024/04/18 03:04:11;;;;;;;;;;;;;;;;;;1108493;26;19945;-73
2024/04/18 03:04:41;;;;;;;;;;;;;;;;;;1104267;26;20013;-72
2024/04/18 03:05:13;;;;;;;;;;;;;;;;;;1105218;26;19977;-72
2024/04/18 03:05:43;;;;;;;;;;;;;;;;;;1100796;26;19930;-73
2024/04/18 03:06:14;;;;;;;;;;;;;;;;;;1097776;26;19934;-72
2024/04/18 03:06:44;;;;;;;;;;;;;;;;;;1100164;26;20405;-72
2024/04/18 03:07:15;;;;;;;;;;;;;;;;;;1099944;26;20338;-71
2024/04/18 03:07:45;;;;;;;;;;;;;;;;;;1107255;26;19933;-73
2024/04/18 03:08:17;;;;;;;;;;;;;;;;;;1104063;26;21119;-72
2024/04/18 03:08:49;;;;;;;;;;;;;;;;;;1108404;26;19969;-72
2024/04/18 03:09:20;;;;;;;;;;;;;;;;;;1098476;26;20004;-71
2024/04/18 03:09:53;;;;;;;;;;;;;;;;;;1096091;26;20495;-71
2024/04/18 03:10:24;;;;;;;;;;;;;;;;;;1098975;26;20439;-72
2024/04/18 03:10:56;;;;;;;;;;;;;;;;;;1099022;26;19945;-72
2024/04/18 03:11:28;;;;;;;;;;;;;;;;;;1097988;26;19938;-71
2024/04/18 03:11:58;;;;;;;;;;;;;;;;;;1099919;26;20465;-71
2024/04/18 03:12:29;;;;;;;;;;;;;;;;;;1096952;26;20378;-71
2024/04/18 03:12:59;;;;;;;;;;;;;;;;;;1095034;26;19938;-72
2024/04/18 03:13:32;;;;;;;;;;;;;;;;;;1100506;26;19945;-72
2024/04/18 03:14:03;;;;;;;;;;;;;;;;;;1094321;26;19931;-72
2024/04/18 03:14:33;;;;;;;;;;;;;;;;;;1098973;26;19930;-72
2024/04/18 03:15:10;;;;;;;;;;;;;;;;;;1098414;26;19930;-70
2024/04/18 03:15:41;;;;;;;;;;;;;;;;;;1098003;26;20302;-72
2024/04/18 03:16:11;;;;;;;;;;;;;;;;;;1105327;26;20378;-70
2024/04/18 03:16:41;;;;;;;;;;;;;;;;;;1110063;26;19936;-71
2024/04/18 03:17:12;;;;;;;;;;;;;;;;;;1108871;26;19929;-72
2024/04/18 03:17:42;;;;;;;;;;;;;;;;;;1106054;26;20006;-71
2024/04/18 03:18:13;;;;;;;;;;;;;;;;;;1097838;26;20001;-71
2024/04/18 03:18:43;;;;;;;;;;;;;;;;;;1099024;26;19953;-72
2024/04/18 03:19:13;;;;;;;;;;;;;;;;;;1100471;26;19934;-71
2024/04/18 03:19:43;;;;;;;;;;;;;;;;;;1104731;26;19937;-72
2024/04/18 03:20:14;;;;;;;;;;;;;;;;;;1098238;26;19971;-72
2024/04/18 03:20:44;;;;;;;;;;;;;;;;;;1109727;26;19937;-73
2024/04/18 03:21:15;;;;;;;;;;;;;;;;;;1111004;26;20397;-72
2024/04/18 03:21:46;;;;;;;;;;;;;;;;;;1107648;26;20021;-72
2024/04/18 03:22:16;;;;;;;;;;;;;;;;;;1107996;26;20666;-73
2024/04/18 03:22:47;;;;;;;;;;;;;;;;;;1108437;26;20039;-71
2024/04/18 03:23:17;;;;;;;;;;;;;;;;;;1106392;26;19930;-72
2024/04/18 03:23:47;;;;;;;;;;;;;;;;;;1108412;26;19946;-73
2024/04/18 03:24:18;;;;;;;;;;;;;;;;;;1108653;26;20320;-72
2024/04/18 03:24:48;;;;;;;;;;;;;;;;;;1108964;26;19987;-72
2024/04/18 03:25:18;;;;;;;;;;;;;;;;;;1106232;26;19941;-72
2024/04/18 03:25:49;;;;;;;;;;;;;;;;;;1115519;26;19929;-73
2024/04/18 03:26:19;;;;;;;;;;;;;;;;;;1107988;26;20037;-73
2024/04/18 03:26:50;;;;;;;;;;;;;;;;;;1108354;26;19938;-73
2024/04/18 03:27:20;;;;;;;;;;;;;;;;;;1106650;26;20615;-73
2024/04/18 03:27:51;;;;;;;;;;;;;;;;;;1106236;26;20372;-73